Time;durP1;ratioP1;P1;durP2;ratioP2;P2;SDS_P1;SDS_P2;PMS_P1;PMS_P2;Temp;Humidity;BMP_temperature;BMP_pressure;BME280_temperature;BME280_humidity;BME280_pressure;Samples;Min_cycle;Max_cycle;Signal;HPM_P1;HPM_P2
2022/07/28 00:00:13;;;;;;;52.65;49.95;;;;;;;23.55;36.20;101849.38;4895740;29;20093;-69
2022/07/28 00:02:38;;;;;;;52.80;50.17;;;;;;;23.51;36.33;101846.41;4882563;29;20041;-69
2022/07/28 00:05:05;;;;;;;52.72;50.22;;;;;;;23.48;36.06;101843.44;4882644;29;20048;-69
2022/07/28 00:07:30;;;;;;;52.42;49.65;;;;;;;23.45;36.42;101842.09;4882735;29;20037;-70
2022/07/28 00:09:55;;;;;;;54.15;51.55;;;;;;;23.44;36.02;101842.41;4882745;29;20175;-70
2022/07/28 00:12:21;;;;;;;55.00;51.53;;;;;;;23.42;36.36;101841.91;4882288;29;20120;-69
2022/07/28 00:14:46;;;;;;;55.60;53.03;;;;;;;23.40;36.46;101841.38;4881953;29;20072;-70
2022/07/28 00:17:11;;;;;;;56.33;53.53;;;;;;;23.38;36.04;101840.84;4882168;29;20037;-69
2022/07/28 00:19:37;;;;;;;51.25;48.83;;;;;;;23.36;36.06;101843.94;4882095;29;20417;-68
2022/07/28 00:22:03;;;;;;;52.22;49.80;;;;;;;23.33;36.42;101842.59;4882021;29;20579;-70
2022/07/28 00:24:30;;;;;;;53.70;50.63;;;;;;;23.30;36.09;101847.88;4882026;29;20045;-69
2022/07/28 00:26:56;;;;;;;51.83;49.33;;;;;;;23.25;36.42;101846.03;4881904;29;20033;-70
2022/07/28 00:29:21;;;;;;;51.67;49.17;;;;;;;23.24;36.50;101832.56;4881929;29;20484;-70
2022/07/28 00:31:47;;;;;;;54.47;51.80;;;;;;;23.21;36.10;101831.22;4881562;29;20493;-69
2022/07/28 00:34:12;;;;;;;54.42;51.88;;;;;;;23.19;36.34;101830.72;4881742;29;20037;-69
2022/07/28 00:36:37;;;;;;;49.95;47.55;;;;;;;23.17;36.10;101832.94;4882362;29;20035;-70
2022/07/28 00:39:03;;;;;;;51.15;48.65;;;;;;;23.15;36.56;101834.38;4881724;29;20124;-70
2022/07/28 00:41:28;;;;;;;52.85;50.15;;;;;;;23.10;36.22;101832.50;4881730;29;20029;-70
2022/07/28 00:43:54;;;;;;;53.15;50.35;;;;;;;23.09;36.77;101828.13;4881504;29;20120;-70
2022/07/28 00:46:21;;;;;;;51.85;48.95;;;;;;;23.08;36.34;101831.97;4880434;29;20037;-70
2022/07/28 00:48:49;;;;;;;51.40;48.67;;;;;;;23.05;36.43;101832.59;4881147;29;20048;-70
2022/07/28 00:51:16;;;;;;;52.05;49.58;;;;;;;23.04;36.40;101830.97;4881498;29;20037;-69
2022/07/28 00:53:42;;;;;;;49.45;47.03;;;;;;;23.02;36.78;101824.94;4881916;29;20071;-69
2022/07/28 00:56:08;;;;;;;50.08;47.58;;;;;;;23.00;36.64;101821.66;4896560;29;20041;-69
2022/07/28 00:58:37;;;;;;;53.47;50.80;;;;;;;22.97;36.37;101823.06;4881655;29;20039;-69
2022/07/28 01:01:04;;;;;;;51.42;48.83;;;;;;;22.95;36.59;101818.94;4881747;29;20450;-69
2022/07/28 01:03:31;;;;;;;50.60;48.20;;;;;;;22.92;36.47;101825.88;4881345;29;20036;-70
2022/07/28 01:06:16;;;;;;;52.35;49.80;;;;;;;22.90;36.86;101817.91;4881275;29;20124;-70
2022/07/28 01:09:03;;;;;;;51.63;49.08;;;;;;;22.88;36.49;101825.66;4881165;29;20069;-70
2022/07/28 01:11:40;;;;;;;51.70;49.20;;;;;;;22.86;36.49;101821.56;4881264;29;20152;-70
2022/07/28 01:14:20;;;;;;;50.45;47.67;;;;;;;22.83;36.84;101820.25;4881145;29;20033;-70
2022/07/28 01:16:55;;;;;;;50.50;48.10;;;;;;;22.82;37.02;101817.78;4881581;29;20485;-69
2022/07/28 01:19:36;;;;;;;48.88;46.60;;;;;;;22.78;36.98;101816.72;4881385;29;20479;-69
2022/07/28 01:22:04;;;;;;;50.67;48.17;;;;;;;22.76;36.90;101811.53;4881027;29;20033;-70
2022/07/28 01:24:40;;;;;;;50.33;47.97;;;;;;;22.74;36.91;101813.75;4880982;29;20044;-70
2022/07/28 01:27:09;;;;;;;49.75;47.45;;;;;;;22.73;36.46;101816.81;4881281;29;20037;-71
2022/07/28 01:29:43;;;;;;;48.70;46.35;;;;;;;22.71;36.94;101808.84;4881223;29;20124;-70
2022/07/28 01:32:20;;;;;;;50.45;47.85;;;;;;;22.68;37.09;101810.28;4881211;29;20033;-69
2022/07/28 01:34:55;;;;;;;52.13;49.38;;;;;;;22.66;36.95;101807.00;4880325;29;20343;-68
2022/07/28 01:37:25;;;;;;;50.97;48.45;;;;;;;22.64;36.80;101808.41;4880992;29;20039;-70
2022/07/28 01:39:55;;;;;;;49.95;47.45;;;;;;;22.63;36.95;101793.03;4880667;29;20036;-70
2022/07/28 01:42:25;;;;;;;48.13;45.63;;;;;;;22.60;36.92;101797.19;4880662;29;20025;-70
2022/07/28 01:44:53;;;;;;;48.88;46.35;;;;;;;22.58;37.07;101790.31;4880459;29;20377;-69
2022/07/28 01:47:20;;;;;;;;;;;;;;;22.55;36.74;101788.97;4880668;29;20033;-67
2022/07/28 01:49:48;;;;;;;49.20;46.65;;;;;;;22.53;36.82;101788.47;4881268;29;20261;-69
2022/07/28 01:52:15;;;;;;;;;;;;;;;22.51;36.70;101787.13;4880638;29;20044;-69
2022/07/28 01:54:42;;;;;;;48.50;45.90;;;;;;;22.47;36.78;101784.16;4880347;29;19916;-70
2022/07/28 01:57:13;;;;;;;48.30;46.00;;;;;;;22.44;36.88;101782.81;4879967;29;20525;-69
2022/07/28 01:59:39;;;;;;;47.75;45.20;;;;;;;22.41;36.96;101783.41;4880241;29;20446;-70
2022/07/28 02:02:07;;;;;;;51.15;48.50;;;;;;;22.40;36.91;101786.44;4880035;29;20041;-70
2022/07/28 02:04:36;;;;;;;48.03;45.63;;;;;;;22.38;37.06;101781.25;4880168;29;20037;-70
2022/07/28 02:07:04;;;;;;;50.20;47.70;;;;;;;22.36;37.25;101782.66;4880203;29;20040;-70
2022/07/28 02:09:31;;;;;;;48.03;45.63;;;;;;;22.34;37.08;101777.44;4880621;29;20037;-69
2022/07/28 02:11:58;;;;;;;52.25;49.67;;;;;;;22.32;36.99;101779.69;4878768;29;20029;-69
2022/07/28 02:14:26;;;;;;;47.25;44.95;;;;;;;22.30;37.07;101781.94;4880326;29;20033;-70
2022/07/28 02:16:54;;;;;;;48.78;46.17;;;;;;;22.29;37.08;101780.28;4880733;29;20041;-70
2022/07/28 02:19:21;;;;;;;49.63;47.10;;;;;;;22.28;37.34;101786.09;4880081;29;20041;-70
2022/07/28 02:21:48;;;;;;;47.75;45.40;;;;;;;22.25;37.41;101777.31;4893739;29;20085;-70
2022/07/28 02:24:15;;;;;;;48.60;46.20;;;;;;;22.24;37.42;101788.59;4879888;29;20033;-70
2022/07/28 02:26:47;;;;;;;49.65;47.22;;;;;;;22.22;37.43;101777.06;4879893;29;20037;-70
2022/07/28 02:29:15;;;;;;;47.83;45.33;;;;;;;22.20;37.04;101776.53;4880665;29;20040;-69
2022/07/28 02:31:50;;;;;;;47.55;45.05;;;;;;;22.18;37.36;101773.25;4880389;29;20036;-70
2022/07/28 02:34:17;;;;;;;49.85;47.25;;;;;;;22.17;37.55;101777.09;4880478;29;20029;-71
2022/07/28 02:36:48;;;;;;;47.35;45.05;;;;;;;22.13;37.27;101768.63;4879818;29;20065;-70
2022/07/28 02:39:22;;;;;;;47.53;44.78;;;;;;;22.12;37.22;101763.41;4878753;29;20462;-70
2022/07/28 02:41:59;;;;;;;48.22;45.85;;;;;;;22.10;37.57;101771.16;4880261;29;20044;-69
2022/07/28 02:44:30;;;;;;;46.85;44.55;;;;;;;22.07;37.46;101778.06;4879881;29;20055;-70
2022/07/28 02:46:58;;;;;;;48.80;46.35;;;;;;;22.06;37.40;101779.19;4879547;29;20593;-72
2022/07/28 02:49:34;;;;;;;47.07;44.70;;;;;;;22.04;37.64;101778.66;4880104;29;20049;-70
2022/07/28 02:52:02;;;;;;;49.00;46.33;;;;;;;22.01;37.42;101773.75;4879531;29;20088;-68
2022/07/28 02:54:29;;;;;;;46.70;44.33;;;;;;;21.99;37.36;101770.47;4879505;29;20407;-68
2022/07/28 02:56:57;;;;;;;47.03;44.35;;;;;;;21.97;37.33;101776.28;4879456;29;20084;-68
2022/07/28 02:59:24;;;;;;;45.13;42.80;;;;;;;21.95;37.20;101777.69;4879767;29;20088;-68
2022/07/28 03:01:51;;;;;;;45.65;43.45;;;;;;;21.93;37.25;101777.97;4878423;29;20041;-69
2022/07/28 03:04:55;;;;;;;46.42;44.03;;;;;;;21.91;37.46;101780.19;4880036;29;20044;-70
2022/07/28 03:07:06;;;;;;;45.85;43.65;;;;;;;21.89;37.31;101776.09;4879047;29;20049;-70
2022/07/28 03:09:45;;;;;;;46.58;44.20;;;;;;;21.86;37.45;101774.75;4879567;29;20041;-71
2022/07/28 03:12:11;;;;;;;46.05;43.53;;;;;;;21.85;37.56;101773.13;4879924;29;20033;-67
2022/07/28 03:14:37;;;;;;;46.42;44.22;;;;;;;21.83;37.16;101778.09;4879543;29;20530;-67
2022/07/28 03:17:03;;;;;;;46.20;43.80;;;;;;;21.80;37.22;101773.19;4879555;29;20089;-68
2022/07/28 03:19:29;;;;;;;45.25;42.95;;;;;;;21.79;37.56;101768.78;4879198;29;20108;-69
2022/07/28 03:21:55;;;;;;;45.28;43.10;;;;;;;21.77;37.33;101776.50;4879759;29;20434;-68
2022/07/28 03:24:23;;;;;;;46.50;44.00;;;;;;;21.74;37.74;101772.41;4879427;29;20037;-69
2022/07/28 03:27:03;;;;;;;44.08;41.97;;;;;;;21.73;37.67;101776.28;4879577;29;20033;-69
2022/07/28 03:29:31;;;;;;;44.22;42.13;;;;;;;21.71;37.27;101774.94;4879365;29;20040;-68
2022/07/28 03:31:58;;;;;;;43.92;41.63;;;;;;;21.70;37.35;101776.06;4879086;29;20464;-68
2022/07/28 03:34:24;;;;;;;43.28;41.17;;;;;;;21.67;37.74;101768.38;4881571;29;20121;-69
2022/07/28 03:37:01;;;;;;;46.08;43.53;;;;;;;21.65;37.36;101776.13;4882906;29;20033;-69
2022/07/28 03:39:30;;;;;;;47.22;44.90;;;;;;;21.64;37.76;101766.22;4883073;29;20033;-69
2022/07/28 03:41:57;;;;;;;;;;;;;;;21.60;37.42;101766.81;4883248;29;20521;-69
2022/07/28 03:44:25;;;;;;;41.95;39.88;;;;;;;21.58;37.68;101760.78;4883050;29;19911;-70
2022/07/28 03:46:50;;;;;;;44.07;41.50;;;;;;;21.55;37.64;101766.06;4882891;29;20025;-70
2022/07/28 03:49:16;;;;;;;45.58;43.13;;;;;;;21.53;37.42;101760.84;4882700;29;20131;-68
2022/07/28 03:51:41;;;;;;;43.75;41.58;;;;;;;21.52;37.80;101763.88;4882709;29;20125;-70
2022/07/28 03:54:07;;;;;;;45.42;42.88;;;;;;;21.50;37.52;101769.69;4882813;29;20533;-68
2022/07/28 03:56:32;;;;;;;44.15;41.85;;;;;;;21.48;37.34;101763.66;4883247;29;20089;-70
2022/07/28 03:58:58;;;;;;;43.88;41.67;;;;;;;21.46;37.30;101773.28;4883218;29;20033;-69
2022/07/28 04:01:23;;;;;;;45.22;43.03;;;;;;;21.44;37.26;101772.75;4883147;29;20112;-72
2022/07/28 04:03:48;;;;;;;45.92;43.67;;;;;;;21.42;37.73;101767.56;4883179;29;20045;-68
2022/07/28 04:06:14;;;;;;;45.83;43.40;;;;;;;21.41;37.70;101776.91;4882769;29;20056;-71
2022/07/28 04:08:40;;;;;;;42.78;40.67;;;;;;;21.38;37.30;101772.81;4882411;29;20041;-71
2022/07/28 04:11:05;;;;;;;45.47;43.28;;;;;;;21.37;37.32;101778.59;4881945;29;20533;-71
2022/07/28 04:13:31;;;;;;;43.83;41.42;;;;;;;21.35;37.48;101778.88;4882419;29;20038;-70
2022/07/28 04:15:57;;;;;;;42.67;40.45;;;;;;;21.34;37.60;101770.91;4882410;29;20037;-70
2022/07/28 04:18:22;;;;;;;44.25;42.15;;;;;;;21.32;37.65;101778.63;4882194;29;20037;-71
2022/07/28 04:20:48;;;;;;;44.28;42.08;;;;;;;21.29;37.56;101774.53;4882149;29;20040;-70
2022/07/28 04:23:13;;;;;;;45.35;42.95;;;;;;;21.27;37.37;101776.75;4882055;29;20120;-70
2022/07/28 04:25:38;;;;;;;43.88;41.63;;;;;;;21.25;37.77;101770.72;4882297;29;20045;-71
2022/07/28 04:28:04;;;;;;;44.22;41.97;;;;;;;21.24;37.39;101773.75;4882139;29;20352;-70
2022/07/28 04:30:29;;;;;;;46.72;44.15;;;;;;;21.22;37.69;101770.47;4882213;29;20037;-70
2022/07/28 04:32:55;;;;;;;44.03;41.83;;;;;;;21.20;37.81;101764.47;4882137;29;20418;-70
2022/07/28 04:35:26;;;;;;;44.90;42.63;;;;;;;21.17;37.89;101769.44;4882469;29;20057;-70
2022/07/28 04:37:54;;;;;;;44.92;42.53;;;;;;;21.14;37.53;101764.50;4882117;29;20041;-70
2022/07/28 04:40:19;;;;;;;43.55;40.92;;;;;;;21.13;37.65;101762.84;4881983;29;20390;-73
2022/07/28 04:42:45;;;;;;;43.05;40.85;;;;;;;21.12;37.37;101769.47;4882294;29;20040;-74
2022/07/28 04:45:11;;;;;;;43.58;41.33;;;;;;;21.11;37.61;101769.75;4864250;29;20041;-74
2022/07/28 04:47:36;;;;;;;43.50;41.30;;;;;;;21.08;37.75;101765.66;4881378;29;20057;-68
2022/07/28 04:50:03;;;;;;;43.28;40.63;;;;;;;21.07;37.73;101768.72;4882125;29;20036;-67
2022/07/28 04:52:29;;;;;;;45.10;42.75;;;;;;;21.05;37.66;101770.91;4881607;29;20049;-69
2022/07/28 04:54:54;;;;;;;44.80;42.60;;;;;;;21.03;37.41;101771.19;4881956;29;20060;-70
2022/07/28 04:57:20;;;;;;;46.70;44.22;;;;;;;21.00;37.89;101769.03;4881781;29;20060;-74
2022/07/28 04:59:45;;;;;;;43.75;41.60;;;;;;;20.99;37.84;101767.41;4881487;29;20115;-70
2022/07/28 05:02:11;;;;;;;43.97;41.45;;;;;;;20.98;37.86;101774.00;4881509;29;20045;-70
2022/07/28 05:04:37;;;;;;;43.83;41.67;;;;;;;20.96;37.96;101774.28;4881200;29;20480;-70
2022/07/28 05:07:02;;;;;;;43.78;41.17;;;;;;;20.95;37.79;101775.38;4880083;29;20047;-69
2022/07/28 05:09:28;;;;;;;42.40;40.30;;;;;;;20.93;37.59;101777.59;4880661;29;20041;-71
2022/07/28 05:11:53;;;;;;;42.33;39.95;;;;;;;20.90;37.69;101783.66;4880346;29;20537;-70
2022/07/28 05:14:19;;;;;;;44.58;42.38;;;;;;;20.90;37.45;101774.63;4881109;29;20378;-70
2022/07/28 05:16:44;;;;;;;42.28;40.08;;;;;;;20.87;37.88;101765.03;4896318;29;20041;-71
2022/07/28 05:19:10;;;;;;;43.45;41.03;;;;;;;20.87;37.94;101775.19;4881072;29;20373;-71
2022/07/28 05:21:35;;;;;;;44.60;42.20;;;;;;;20.85;37.71;101771.91;4879628;29;20033;-68
2022/07/28 05:24:01;;;;;;;43.40;41.10;;;;;;;20.85;37.85;101771.91;4881259;29;20093;-70
2022/07/28 05:26:27;;;;;;;43.30;40.95;;;;;;;20.83;38.28;101763.13;4880953;29;20168;-69
2022/07/28 05:28:53;;;;;;;44.22;41.80;;;;;;;20.82;38.37;101769.75;4880912;29;20037;-68
2022/07/28 05:31:18;;;;;;;43.75;41.45;;;;;;;20.82;38.18;101767.00;4880887;29;20435;-68
2022/07/28 05:33:44;;;;;;;42.63;40.42;;;;;;;20.80;38.16;101767.28;4880429;29;20037;-70
2022/07/28 05:36:10;;;;;;;44.55;42.17;;;;;;;20.78;38.20;101765.91;4880430;29;20474;-70
2022/07/28 05:38:35;;;;;;;40.92;38.67;;;;;;;20.74;38.22;101762.94;4880042;29;20068;-71
2022/07/28 05:41:00;;;;;;;42.50;40.40;;;;;;;20.73;38.61;101766.78;4881119;29;20064;-70
2022/07/28 05:43:26;;;;;;;43.17;40.88;;;;;;;20.72;38.49;101774.19;4880242;29;20491;-69
2022/07/28 05:45:51;;;;;;;43.05;40.80;;;;;;;20.71;38.57;101772.56;4880491;29;20059;-69
2022/07/28 05:48:18;;;;;;;44.92;42.63;;;;;;;20.70;38.92;101779.16;4880250;29;20053;-70
2022/07/28 05:50:44;;;;;;;41.45;39.30;;;;;;;20.67;38.65;101771.50;4880234;29;20033;-70
2022/07/28 05:53:09;;;;;;;43.00;40.67;;;;;;;20.66;38.75;101772.59;4880093;29;20053;-68
2022/07/28 05:55:35;;;;;;;42.90;40.50;;;;;;;20.64;39.04;101772.06;4879073;29;20485;-68
2022/07/28 05:58:00;;;;;;;43.25;40.65;;;;;;;20.65;39.23;101764.66;4879166;29;20065;-69
2022/07/28 06:00:26;;;;;;;42.53;40.35;;;;;;;20.64;38.99;101768.50;4880243;29;20033;-69
2022/07/28 06:02:51;;;;;;;43.90;41.25;;;;;;;20.61;39.30;101764.38;4880280;29;20041;-68
2022/07/28 06:05:19;;;;;;;45.08;42.63;;;;;;;20.60;39.14;101759.19;4880003;29;20394;-72
2022/07/28 06:07:45;;;;;;;42.63;40.33;;;;;;;20.59;38.98;101765.78;4879775;29;20537;-71
2022/07/28 06:10:14;;;;;;;42.70;40.47;;;;;;;20.57;39.51;101760.59;4880199;29;20036;-68
2022/07/28 06:12:42;;;;;;;44.42;41.67;;;;;;;20.57;39.51;101757.84;4879944;29;20039;-69
2022/07/28 06:15:15;;;;;;;44.65;42.35;;;;;;;20.54;39.54;101758.38;4879860;29;20037;-69
2022/07/28 06:17:41;;;;;;;40.78;38.47;;;;;;;20.53;39.26;101773.19;4894197;29;20343;-69
2022/07/28 06:20:08;;;;;;;42.47;39.65;;;;;;;20.53;39.83;101770.44;4880044;29;20129;-70
2022/07/28 06:22:45;;;;;;;41.78;39.38;;;;;;;20.51;39.82;101768.00;4879622;29;20112;-69
2022/07/28 06:25:17;;;;;;;40.37;38.20;;;;;;;20.50;39.81;101776.50;4879743;29;20056;-73
2022/07/28 06:27:46;;;;;;;41.25;38.83;;;;;;;20.49;39.51;101772.97;4879280;29;20497;-69
2022/07/28 06:30:11;;;;;;;42.83;40.25;;;;;;;20.50;39.58;101771.84;4880273;29;20100;-68
2022/07/28 06:32:37;;;;;;;42.53;40.17;;;;;;;20.49;39.69;101774.88;4894500;29;20470;-70
2022/07/28 06:35:03;;;;;;;43.08;40.42;;;;;;;20.50;40.28;101780.06;4879396;29;20549;-69
2022/07/28 06:37:28;;;;;;;42.13;39.72;;;;;;;20.50;39.69;101776.50;4878901;29;20467;-67
2022/07/28 06:39:54;;;;;;;41.03;38.50;;;;;;;20.50;39.92;101776.50;4879517;29;20123;-70
2022/07/28 06:42:19;;;;;;;41.80;38.88;;;;;;;20.49;40.01;101775.69;4878176;29;20131;-70
2022/07/28 06:44:45;;;;;;;40.03;37.83;;;;;;;20.53;40.21;101781.44;4878921;29;20037;-71
2022/07/28 06:47:10;;;;;;;41.78;39.58;;;;;;;20.51;40.10;101780.88;4879118;29;20029;-70
2022/07/28 06:49:36;;;;;;;43.38;41.05;;;;;;;20.51;39.94;101783.63;4879518;29;20033;-70
2022/07/28 06:52:01;;;;;;;41.10;38.90;;;;;;;20.52;40.44;101788.03;4879681;29;20537;-72
2022/07/28 06:54:26;;;;;;;41.33;39.13;;;;;;;20.50;40.33;101785.56;4879115;29;20111;-70
2022/07/28 06:56:52;;;;;;;40.17;38.03;;;;;;;20.51;40.42;101780.88;4879467;29;20370;-70
2022/07/28 06:59:18;;;;;;;43.05;40.38;;;;;;;20.53;40.46;101775.94;4879188;29;20139;-70
2022/07/28 07:01:43;;;;;;;41.95;39.50;;;;;;;20.52;40.38;101774.31;4879396;29;20033;-67
2022/07/28 07:04:08;;;;;;;40.33;38.17;;;;;;;20.51;40.64;101783.63;4879539;29;20041;-69
2022/07/28 07:06:34;;;;;;;41.55;39.42;;;;;;;20.49;40.76;101783.13;4879618;29;20053;-67
2022/07/28 07:09:00;;;;;;;41.60;39.30;;;;;;;20.50;40.35;101777.31;4881296;29;20521;-72
2022/07/28 07:11:25;;;;;;;42.80;40.40;;;;;;;20.52;40.37;101782.53;4883265;29;20128;-73
2022/07/28 07:13:51;;;;;;;40.92;38.97;;;;;;;20.53;40.41;101773.19;4882980;29;20041;-69
2022/07/28 07:16:17;;;;;;;41.63;39.50;;;;;;;20.55;40.79;101776.50;4882192;29;20041;-68
2022/07/28 07:18:43;;;;;;;42.03;39.33;;;;;;;20.56;40.64;101777.31;4883282;29;20093;-68
2022/07/28 07:21:08;;;;;;;41.33;38.83;;;;;;;20.57;40.33;101781.72;4882581;29;20041;-68
2022/07/28 07:23:34;;;;;;;39.85;37.85;;;;;;;20.57;40.81;101782.53;4883304;29;20089;-70
2022/07/28 07:26:00;;;;;;;40.70;38.60;;;;;;;20.56;41.08;101772.66;4883162;29;20119;-69
2022/07/28 07:28:25;;;;;;;41.83;39.63;;;;;;;20.57;40.59;101779.81;4882309;29;20497;-69
2022/07/28 07:30:51;;;;;;;41.92;39.35;;;;;;;20.59;40.34;101769.34;4882825;29;20114;-69
2022/07/28 07:33:16;;;;;;;42.22;39.75;;;;;;;20.61;40.48;101769.88;4882707;29;20030;-67
2022/07/28 07:35:42;;;;;;;42.67;40.25;;;;;;;20.65;40.54;101764.66;4882862;29;20037;-67
2022/07/28 07:38:07;;;;;;;42.67;40.20;;;;;;;20.67;40.64;101766.00;4883075;29;20047;-69
2022/07/28 07:40:33;;;;;;;40.10;37.63;;;;;;;20.69;40.61;101763.78;4882722;29;20104;-69
2022/07/28 07:42:58;;;;;;;39.58;37.20;;;;;;;20.73;40.52;101764.84;4882722;29;20034;-72
2022/07/28 07:45:23;;;;;;;39.85;37.58;;;;;;;20.77;40.70;101767.03;4897536;29;20439;-70
2022/07/28 07:47:49;;;;;;;39.15;37.10;;;;;;;20.79;40.40;101760.16;4882553;29;20442;-67
2022/07/28 07:50:14;;;;;;;40.70;38.53;;;;;;;20.82;40.84;101767.81;4882989;29;20045;-71
2022/07/28 07:52:40;;;;;;;40.58;38.40;;;;;;;20.85;40.53;101766.41;4882274;29;20470;-72
2022/07/28 07:55:05;;;;;;;40.95;38.85;;;;;;;20.88;40.67;101771.31;4882316;29;20088;-73
2022/07/28 07:57:31;;;;;;;42.17;39.95;;;;;;;20.91;40.72;101766.06;4883020;29;20382;-70
2022/07/28 07:59:56;;;;;;;40.65;38.28;;;;;;;20.93;40.87;101766.59;4882742;29;20155;-71
2022/07/28 08:02:22;;;;;;;41.30;39.00;;;;;;;20.98;40.70;101767.69;4882068;29;20048;-69
2022/07/28 08:04:47;;;;;;;42.25;39.85;;;;;;;21.00;40.66;101766.28;4882085;29;20068;-68
2022/07/28 08:07:13;;;;;;;41.25;38.45;;;;;;;21.02;40.93;101764.06;4881773;29;20033;-70
2022/07/28 08:09:39;;;;;;;42.45;39.90;;;;;;;21.06;41.07;101761.56;4881919;29;20041;-70
2022/07/28 08:12:04;;;;;;;41.03;38.95;;;;;;;21.09;40.82;101759.06;4881621;29;20036;-67
2022/07/28 08:14:30;;;;;;;44.78;42.00;;;;;;;21.12;40.79;101753.00;4882050;29;20037;-71
2022/07/28 08:16:57;;;;;;;44.35;41.90;;;;;;;21.17;40.62;101752.94;4881623;29;20497;-69
2022/07/28 08:19:22;;;;;;;41.83;39.70;;;;;;;21.21;40.49;101757.84;4881486;29;20037;-69
2022/07/28 08:21:48;;;;;;;41.80;39.70;;;;;;;21.25;40.91;101757.00;4880056;29;20044;-76
2022/07/28 08:24:14;;;;;;;41.75;39.03;;;;;;;21.30;41.00;101759.69;4882565;29;20040;-72
2022/07/28 08:26:39;;;;;;;43.88;41.33;;;;;;;21.37;40.88;101762.91;4882194;29;20041;-70
2022/07/28 08:29:05;;;;;;;43.60;41.42;;;;;;;21.42;40.83;101758.47;4881706;29;20036;-70
2022/07/28 08:31:30;;;;;;;47.80;45.40;;;;;;;21.46;40.68;101759.56;4881559;29;20119;-71
2022/07/28 08:33:57;;;;;;;42.65;40.55;;;;;;;21.54;40.67;101758.91;4880256;29;20072;-68
2022/07/28 08:36:22;;;;;;;44.60;42.17;;;;;;;21.60;40.30;101757.75;4881243;29;20126;-69
2022/07/28 08:38:48;;;;;;;43.63;41.33;;;;;;;21.65;40.62;101748.63;4881408;29;20468;-69
2022/07/28 08:41:25;;;;;;;43.70;41.25;;;;;;;21.72;39.80;101741.66;4882252;29;20532;-69
2022/07/28 08:43:51;;;;;;;45.08;42.33;;;;;;;21.79;39.64;101744.03;4882775;29;20029;-69
2022/07/28 08:46:19;;;;;;;46.30;43.95;;;;;;;21.86;39.76;101736.25;4881933;29;20050;-71
2022/07/28 08:48:46;;;;;;;44.65;41.80;;;;;;;21.92;39.32;101740.56;4881852;29;20079;-71
2022/07/28 08:51:12;;;;;;;45.72;43.42;;;;;;;21.98;39.75;101735.84;4881995;29;20037;-70
2022/07/28 08:53:38;;;;;;;47.72;44.85;;;;;;;22.06;39.64;101737.09;4896673;29;20526;-73
2022/07/28 08:56:12;;;;;;;45.78;43.38;;;;;;;22.13;39.66;101732.88;4896107;29;20055;-72
2022/07/28 08:58:38;;;;;;;47.13;44.83;;;;;;;22.21;39.68;101731.41;4882057;29;20033;-69
2022/07/28 09:01:07;;;;;;;45.90;43.17;;;;;;;22.29;39.60;101735.44;4881451;29;20085;-72
2022/07/28 09:03:33;;;;;;;50.00;47.40;;;;;;;22.36;39.63;101733.94;4881598;29;20116;-69
2022/07/28 09:05:59;;;;;;;48.50;46.00;;;;;;;22.45;39.60;101731.31;4895976;29;20096;-69
2022/07/28 09:08:24;;;;;;;48.90;46.40;;;;;;;22.53;39.59;101727.91;4881661;29;20044;-69
2022/07/28 09:10:50;;;;;;;47.35;44.90;;;;;;;22.60;39.34;101728.34;4881792;29;20105;-74
2022/07/28 09:13:16;;;;;;;46.90;44.22;;;;;;;22.68;39.21;101719.41;4896531;29;20041;-70
2022/07/28 09:15:46;;;;;;;50.92;47.75;;;;;;;22.75;39.26;101718.97;4881655;29;20037;-72
2022/07/28 09:18:12;;;;;;;50.92;47.53;;;;;;;22.85;39.20;101705.03;4881639;29;20513;-74
2022/07/28 09:20:39;;;;;;;48.83;46.22;;;;;;;22.95;38.89;101697.72;4880924;29;20069;-72
2022/07/28 09:23:06;;;;;;;52.97;49.83;;;;;;;23.04;38.81;101695.94;4881730;29;20040;-72
2022/07/28 09:25:32;;;;;;;53.28;50.50;;;;;;;23.12;38.63;101692.47;4881315;29;20123;-68
2022/07/28 09:28:07;;;;;;;48.47;46.17;;;;;;;23.20;39.16;101689.00;4881339;29;20044;-69
2022/07/28 09:30:35;;;;;;;52.50;50.00;;;;;;;23.30;38.76;101688.00;4881345;29;20036;-68
2022/07/28 09:33:33;;;;;;;50.65;47.78;;;;;;;23.40;39.34;101696.06;4881194;29;20036;-70
2022/07/28 09:36:00;;;;;;;51.30;48.80;;;;;;;23.48;38.61;101692.56;4869433;29;20081;-69
2022/07/28 09:38:29;;;;;;;54.22;51.28;;;;;;;23.58;37.95;101680.53;4880652;29;20060;-71
2022/07/28 09:40:56;;;;;;;53.80;51.13;;;;;;;23.67;37.72;101689.72;4881060;29;20382;-72
2022/07/28 09:43:42;;;;;;;53.88;51.08;;;;;;;23.77;37.62;101685.97;4880747;29;20037;-69
2022/07/28 09:46:16;;;;;;;55.70;52.70;;;;;;;23.88;37.56;101683.78;4895396;29;20116;-68
2022/07/28 09:48:48;;;;;;;54.78;51.90;;;;;;;23.97;37.16;101691.03;4879697;29;20094;-71
2022/07/28 09:51:15;;;;;;;53.95;51.25;;;;;;;24.06;36.51;101682.81;4880329;29;20045;-70
2022/07/28 09:53:41;;;;;;;56.70;53.88;;;;;;;24.15;36.25;101685.66;4879928;29;20044;-70
2022/07/28 09:56:08;;;;;;;55.03;52.00;;;;;;;24.25;35.43;101690.13;4879309;29;20033;-69
2022/07/28 09:58:34;;;;;;;55.88;53.08;;;;;;;24.33;35.46;101689.38;4879404;29;20408;-69
2022/07/28 10:01:11;;;;;;;56.20;53.60;;;;;;;24.42;35.74;101695.78;4879370;29;20052;-70
2022/07/28 10:03:39;;;;;;;58.03;55.13;;;;;;;24.53;34.87;101690.84;4880297;29;20109;-72
2022/07/28 10:06:10;;;;;;;56.13;53.43;;;;;;;24.61;35.00;101696.41;4880440;29;20037;-70
2022/07/28 10:08:49;;;;;;;57.70;54.75;;;;;;;24.72;35.27;101694.22;4880600;29;20033;-70
2022/07/28 10:11:17;;;;;;;59.08;56.28;;;;;;;24.81;34.38;101686.78;4880230;29;20041;-68
2022/07/28 10:13:52;;;;;;;60.00;56.85;;;;;;;24.93;34.24;101690.94;4879015;29;20037;-72
2022/07/28 10:16:18;;;;;;;59.45;56.03;;;;;;;25.00;34.77;101685.78;4879602;29;20029;-70
2022/07/28 10:18:44;;;;;;;60.85;57.83;;;;;;;25.08;34.66;101690.53;4879741;29;20033;-68
2022/07/28 10:21:13;;;;;;;60.97;58.05;;;;;;;25.17;35.83;101677.56;4879875;29;20059;-69
2022/07/28 10:23:43;;;;;;;63.83;60.63;;;;;;;25.26;35.88;101685.91;4879526;29;20039;-71
2022/07/28 10:26:10;;;;;;;60.38;57.58;;;;;;;25.36;35.72;101669.03;4879480;29;20037;-71
2022/07/28 10:28:38;;;;;;;63.25;60.25;;;;;;;25.46;34.67;101673.44;4879405;29;20037;-69
2022/07/28 10:31:08;;;;;;;62.63;59.72;;;;;;;25.55;34.24;101670.69;4879428;29;20040;-68
2022/07/28 10:33:42;;;;;;;65.07;62.03;;;;;;;25.63;33.90;101664.38;4879664;29;20461;-69
2022/07/28 10:36:09;;;;;;;62.38;59.28;;;;;;;25.73;32.73;101672.38;4879343;29;20041;-68
2022/07/28 10:38:35;;;;;;;63.60;60.58;;;;;;;25.81;32.48;101666.03;4879364;29;20068;-68
2022/07/28 10:41:02;;;;;;;63.25;60.20;;;;;;;25.90;32.55;101671.59;4879212;29;20051;-69
2022/07/28 10:43:30;;;;;;;62.95;59.90;;;;;;;25.99;32.69;101660.53;4878902;29;20038;-68
2022/07/28 10:45:58;;;;;;;64.45;61.33;;;;;;;26.06;33.48;101661.69;4879356;29;20036;-70
2022/07/28 10:48:24;;;;;;;64.87;61.87;;;;;;;26.14;34.01;101662.81;4879162;29;20056;-67
2022/07/28 10:50:52;;;;;;;70.50;67.10;;;;;;;26.22;33.67;101661.19;4879046;29;20041;-68
2022/07/28 10:53:33;;;;;;;66.38;63.15;;;;;;;26.30;33.65;101658.38;4879763;29;20041;-68
2022/07/28 10:56:08;;;;;;;64.18;61.17;;;;;;;26.39;33.46;101660.38;4879917;29;20037;-69
2022/07/28 10:59:04;;;;;;;67.90;64.57;;;;;;;26.49;32.34;101668.31;4878980;29;20033;-67
2022/07/28 11:01:37;;;;;;;69.32;65.75;;;;;;;26.55;31.60;101659.53;4879610;29;20037;-69
2022/07/28 11:04:04;;;;;;;67.10;63.97;;;;;;;26.61;31.80;101660.19;4879091;29;20029;-68
2022/07/28 11:06:44;;;;;;;66.68;63.10;;;;;;;26.69;32.01;101664.09;4879107;29;20089;-68
2022/07/28 11:09:15;;;;;;;70.25;66.53;;;;;;;26.77;31.88;101660.47;4879294;29;20032;-70
2022/07/28 11:11:44;;;;;;;69.63;66.03;;;;;;;26.85;31.78;101670.69;4879175;29;20033;-68